Time;durP1;ratioP1;P1;durP2;ratioP2;P2;SDS_P1;SDS_P2;PMS_P1;PMS_P2;Temp;Humidity;BMP_temperature;BMP_pressure;BME280_temperature;BME280_humidity;BME280_pressure;Samples;Min_cycle;Max_cycle;Signal;HPM_P1;HPM_P2
2023/04/19 00:00:42;;;;;;;5.22;4.10;;;14.20;64.60;;;;;;5020136;28;20075;-85
2023/04/19 00:03:09;;;;;;;5.50;4.18;;;14.20;64.60;;;;;;5036560;28;20029;-83
2023/04/19 00:05:35;;;;;;;5.93;4.38;;;14.20;64.60;;;;;;5036805;28;20075;-84
2023/04/19 00:08:00;;;;;;;5.13;3.88;;;14.20;64.70;;;;;;5003879;28;20033;-84
2023/04/19 00:10:26;;;;;;;5.78;4.38;;;14.10;64.60;;;;;;5003955;28;20037;-84
2023/04/19 00:12:52;;;;;;;7.63;4.70;;;14.10;64.70;;;;;;5038570;28;20374;-85
2023/04/19 00:15:18;;;;;;;5.53;4.30;;;14.10;64.70;;;;;;5059979;28;20462;-84
2023/04/19 00:17:44;;;;;;;5.70;4.47;;;14.10;64.70;;;;;;5037153;28;20021;-85
2023/04/19 00:20:11;;;;;;;6.40;4.90;;;14.10;64.80;;;;;;5020077;28;20094;-88
2023/04/19 00:22:38;;;;;;;5.30;4.13;;;14.10;64.90;;;;;;5020576;28;20445;-84
2023/04/19 00:25:04;;;;;;;6.47;4.43;;;14.10;64.90;;;;;;5020226;28;20029;-90
2023/04/19 00:27:31;;;;;;;5.90;4.78;;;14.10;64.90;;;;;;5020598;28;20032;-85
2023/04/19 00:29:58;;;;;;;6.00;4.47;;;14.10;65.00;;;;;;5053836;28;20029;-84
2023/04/19 00:32:24;;;;;;;5.88;4.75;;;14.00;65.00;;;;;;5003395;28;20469;-84
2023/04/19 00:34:50;;;;;;;5.65;4.57;;;14.10;65.10;;;;;;5019574;28;20033;-85
2023/04/19 00:37:16;;;;;;;6.93;5.13;;;14.10;65.10;;;;;;5020460;28;20375;-85
2023/04/19 00:39:41;;;;;;;5.85;4.80;;;14.00;65.10;;;;;;5003431;28;20038;-83
2023/04/19 00:42:07;;;;;;;6.25;4.68;;;14.00;65.10;;;;;;5003561;28;20029;-85
2023/04/19 00:44:33;;;;;;;7.40;5.53;;;14.00;65.20;;;;;;5035974;28;20444;-84
2023/04/19 00:47:00;;;;;;;6.65;5.10;;;14.00;65.20;;;;;;5020639;28;20477;-85
2023/04/19 00:49:26;;;;;;;5.97;4.80;;;14.00;65.20;;;;;;5036128;28;20037;-85
2023/04/19 00:51:52;;;;;;;6.93;5.32;;;14.00;65.30;;;;;;5035811;28;20057;-86
2023/04/19 00:54:19;;;;;;;6.72;5.35;;;14.00;65.30;;;;;;5019268;28;20029;-86
2023/04/19 00:56:48;;;;;;;6.65;5.38;;;14.00;65.30;;;;;;5020155;28;20126;-85
2023/04/19 00:59:16;;;;;;;7.18;4.70;;;14.00;65.40;;;;;;5020577;28;20037;-86
2023/04/19 01:01:42;;;;;;;6.10;5.03;;;14.00;65.40;;;;;;5019482;28;20047;-86
2023/04/19 01:04:08;;;;;;;6.35;4.72;;;14.00;65.50;;;;;;5035856;28;20457;-86
2023/04/19 01:06:35;;;;;;;6.75;5.30;;;13.90;65.50;;;;;;5021938;28;20067;-87
2023/04/19 01:09:01;;;;;;;5.95;4.70;;;14.00;65.60;;;;;;5023423;28;20021;-86
2023/04/19 01:11:28;;;;;;;6.28;4.93;;;13.90;65.50;;;;;;5007763;28;20361;-84
2023/04/19 01:13:57;;;;;;;6.55;4.78;;;13.90;65.50;;;;;;5023147;28;20037;-85
2023/04/19 01:16:25;;;;;;;7.13;5.00;;;13.90;65.60;;;;;;5023200;28;20029;-86
2023/04/19 01:18:51;;;;;;;6.50;4.65;;;13.90;65.60;;;;;;5023036;28;20051;-85
2023/04/19 01:21:19;;;;;;;6.10;4.93;;;13.90;65.60;;;;;;5039529;28;20056;-85
2023/04/19 01:23:44;;;;;;;6.45;5.43;;;13.80;65.60;;;;;;5023035;28;20071;-85
2023/04/19 01:26:10;;;;;;;7.32;5.05;;;13.80;65.70;;;;;;5022930;28;20025;-84
2023/04/19 01:28:36;;;;;;;6.40;4.95;;;13.80;65.70;;;;;;5023611;28;20067;-85
2023/04/19 01:31:02;;;;;;;5.97;4.78;;;13.80;65.70;;;;;;5023224;28;20031;-86
2023/04/19 01:33:28;;;;;;;7.03;5.22;;;13.80;65.80;;;;;;5023171;28;20057;-84
2023/04/19 01:35:54;;;;;;;5.95;4.93;;;13.80;65.90;;;;;;5023009;28;20545;-83
2023/04/19 01:38:20;;;;;;;7.18;5.45;;;13.80;65.90;;;;;;5057051;28;20036;-85
2023/04/19 01:40:45;;;;;;;6.25;4.82;;;13.80;65.90;;;;;;5039435;28;20443;-85
2023/04/19 01:43:13;;;;;;;7.03;5.07;;;13.80;65.90;;;;;;5023223;28;20029;-85
2023/04/19 01:45:39;;;;;;;6.72;5.07;;;13.70;65.90;;;;;;5022953;28;20466;-85
2023/04/19 01:48:05;;;;;;;7.57;5.55;;;13.70;65.90;;;;;;5038987;28;20028;-84
2023/04/19 01:50:33;;;;;;;7.45;5.65;;;13.70;66.00;;;;;;5023635;28;20120;-84
2023/04/19 01:52:59;;;;;;;7.55;5.45;;;13.70;66.00;;;;;;5039076;28;20033;-84
2023/04/19 01:55:25;;;;;;;6.72;4.70;;;13.70;66.00;;;;;;5022560;28;20031;-83
2023/04/19 01:57:52;;;;;;;6.50;5.00;;;13.70;66.00;;;;;;5033511;28;20025;-83
2023/04/19 02:00:18;;;;;;;6.50;5.10;;;13.70;66.00;;;;;;5047553;28;20033;-89
2023/04/19 02:02:45;;;;;;;6.53;5.03;;;13.70;66.00;;;;;;5028425;28;20040;-87
2023/04/19 02:05:11;;;;;;;7.40;5.60;;;13.70;66.10;;;;;;5040359;28;20036;-83
2023/04/19 02:07:37;;;;;;;6.82;5.00;;;13.70;66.10;;;;;;5038821;28;20036;-87
2023/04/19 02:10:04;;;;;;;7.10;4.82;;;13.60;66.10;;;;;;5022148;28;20025;-87
2023/04/19 02:12:33;;;;;;;6.53;5.05;;;13.60;66.20;;;;;;5038387;28;20029;-83
2023/04/19 02:15:01;;;;;;;7.38;5.30;;;13.60;66.20;;;;;;5038729;28;20017;-86
2023/04/19 02:17:29;;;;;;;7.97;5.55;;;13.60;66.20;;;;;;5056010;28;20403;-84
2023/04/19 02:19:56;;;;;;;6.93;5.03;;;13.60;66.20;;;;;;5038087;28;20078;-84
2023/04/19 02:22:25;;;;;;;7.55;5.07;;;13.60;66.20;;;;;;5022525;28;20037;-83
2023/04/19 02:24:51;;;;;;;6.43;5.10;;;13.60;66.30;;;;;;5021612;28;20098;-85
2023/04/19 02:27:17;;;;;;;6.20;5.00;;;13.50;66.20;;;;;;5038168;28;20033;-84
2023/04/19 02:29:43;;;;;;;7.65;5.28;;;13.50;66.20;;;;;;5021531;28;20029;-85
2023/04/19 02:32:11;;;;;;;6.55;5.03;;;13.50;66.30;;;;;;5021722;28;20029;-84
2023/04/19 02:34:37;;;;;;;7.22;5.47;;;13.50;66.30;;;;;;5021558;28;20028;-84
2023/04/19 02:37:03;;;;;;;6.38;5.18;;;13.50;66.40;;;;;;5021851;28;20028;-84
2023/04/19 02:39:29;;;;;;;5.70;4.45;;;13.40;66.40;;;;;;5021417;28;20450;-85
2023/04/19 02:41:55;;;;;;;6.47;4.88;;;13.40;66.40;;;;;;5005229;28;20037;-88
2023/04/19 02:44:21;;;;;;;6.65;5.00;;;13.40;66.40;;;;;;5037817;28;20033;-87
2023/04/19 02:46:51;;;;;;;6.80;5.22;;;13.40;66.50;;;;;;5037670;28;20116;-85
2023/04/19 02:49:17;;;;;;;6.72;4.88;;;13.40;66.50;;;;;;5022057;28;20090;-83
2023/04/19 02:51:44;;;;;;;6.43;4.82;;;13.30;66.50;;;;;;5021300;28;20021;-85
2023/04/19 02:54:11;;;;;;;6.80;5.00;;;13.40;66.60;;;;;;5038255;28;20119;-84
2023/04/19 02:56:38;;;;;;;8.10;5.03;;;13.30;66.50;;;;;;5005452;28;20021;-85
2023/04/19 02:59:05;;;;;;;6.70;4.93;;;13.30;66.60;;;;;;5037833;28;20086;-86
2023/04/19 03:01:31;;;;;;;6.70;5.03;;;13.30;66.60;;;;;;5021782;28;20526;-85
2023/04/19 03:03:58;;;;;;;6.55;4.93;;;13.30;66.60;;;;;;5037629;28;20033;-87
2023/04/19 03:06:25;;;;;;;5.70;4.22;;;13.30;66.70;;;;;;5004787;28;20190;-85
2023/04/19 03:08:51;;;;;;;5.90;4.38;;;13.30;66.70;;;;;;5021016;28;20116;-86
2023/04/19 03:11:18;;;;;;;5.88;4.60;;;13.30;66.70;;;;;;5005302;28;20376;-86
2023/04/19 03:13:45;;;;;;;5.53;4.40;;;13.30;66.80;;;;;;5038217;28;20033;-85
2023/04/19 03:16:12;;;;;;;6.40;4.93;;;13.20;66.70;;;;;;5021206;28;20078;-85
2023/04/19 03:18:38;;;;;;;5.85;4.47;;;13.20;66.80;;;;;;5020899;28;20116;-85
2023/04/19 03:21:08;;;;;;;5.75;4.05;;;13.20;66.80;;;;;;5037073;28;20048;-86
2023/04/19 03:23:43;;;;;;;6.68;4.90;;;13.20;66.90;;;;;;5022985;28;20033;-86
2023/04/19 03:26:09;;;;;;;6.07;4.32;;;13.20;66.90;;;;;;5020885;28;20426;-86
2023/04/19 03:28:43;;;;;;;5.45;4.05;;;13.20;66.90;;;;;;5036341;28;20111;-87
2023/04/19 03:31:20;;;;;;;5.93;4.22;;;13.20;66.90;;;;;;5007762;28;20382;-86
2023/04/19 03:33:49;;;;;;;5.63;4.18;;;13.10;67.00;;;;;;5005200;28;20457;-84
2023/04/19 03:36:15;;;;;;;5.85;4.25;;;13.10;67.00;;;;;;5020655;28;20029;-84
2023/04/19 03:38:43;;;;;;;6.47;4.30;;;13.10;67.00;;;;;;5021678;28;20032;-85
2023/04/19 03:41:26;;;;;;;5.45;3.85;;;13.10;67.00;;;;;;5005873;28;20033;-86
2023/04/19 03:44:12;;;;;;;4.95;3.85;;;13.10;67.10;;;;;;5047474;28;20037;-83
2023/04/19 03:46:41;;;;;;;5.20;3.80;;;13.10;67.10;;;;;;5005123;28;20202;-83
2023/04/19 03:49:07;;;;;;;4.97;3.88;;;13.10;67.10;;;;;;5005074;28;20033;-84
2023/04/19 03:51:33;;;;;;;4.80;3.78;;;13.10;67.10;;;;;;5020286;28;20074;-88
2023/04/19 03:53:59;;;;;;;5.38;3.88;;;13.10;67.20;;;;;;5004828;28;20043;-84
2023/04/19 03:56:27;;;;;;;5.78;4.05;;;13.10;67.20;;;;;;5021004;28;20473;-84
2023/04/19 03:58:54;;;;;;;5.32;3.75;;;13.10;67.20;;;;;;5037064;28;20024;-84
2023/04/19 04:01:21;;;;;;;5.90;4.07;;;13.10;67.20;;;;;;5020618;28;20033;-84
2023/04/19 04:03:48;;;;;;;5.30;3.92;;;13.10;67.20;;;;;;5020215;28;20106;-86
2023/04/19 04:06:14;;;;;;;4.85;3.78;;;13.10;67.20;;;;;;5020857;28;20028;-85
2023/04/19 04:08:40;;;;;;;5.57;3.85;;;13.10;67.30;;;;;;5042178;28;20504;-82
2023/04/19 04:11:05;;;;;;;5.32;3.70;;;13.10;67.30;;;;;;5027052;28;20029;-86
2023/04/19 04:13:31;;;;;;;5.47;3.85;;;13.10;67.30;;;;;;5024665;28;20449;-85
2023/04/19 04:16:17;;;;;;;5.55;3.90;;;13.10;67.30;;;;;;5057648;28;20068;-84
2023/04/19 04:18:43;;;;;;;5.38;3.70;;;13.10;67.30;;;;;;5004902;28;20061;-84
2023/04/19 04:21:14;;;;;;;5.82;3.75;;;13.10;67.30;;;;;;5005155;28;20036;-85
2023/04/19 04:23:42;;;;;;;4.90;3.47;;;13.10;67.30;;;;;;5020579;28;20033;-84
2023/04/19 04:26:14;;;;;;;5.22;3.88;;;13.00;67.20;;;;;;5005603;28;20083;-84
2023/04/19 04:29:07;;;;;;;5.18;3.75;;;13.00;67.20;;;;;;5024599;28;20076;-85
2023/04/19 04:31:34;;;;;;;4.97;3.50;;;13.00;67.10;;;;;;5045240;28;20048;-85
2023/04/19 04:34:01;;;;;;;5.18;3.67;;;13.00;67.20;;;;;;5037263;28;20060;-85
2023/04/19 04:36:28;;;;;;;5.10;3.80;;;13.00;67.20;;;;;;5023168;28;20025;-86
2023/04/19 04:38:56;;;;;;;4.97;4.00;;;13.00;67.20;;;;;;5037027;28;20029;-86
2023/04/19 04:41:22;;;;;;;4.20;3.30;;;13.00;67.20;;;;;;5041832;28;20037;-86
2023/04/19 04:43:50;;;;;;;4.75;3.70;;;13.00;67.20;;;;;;5045237;28;20088;-86
2023/04/19 04:46:17;;;;;;;4.97;3.65;;;13.00;67.20;;;;;;5018075;28;20045;-87
2023/04/19 04:48:44;;;;;;;4.93;3.38;;;12.90;67.20;;;;;;5050659;28;20033;-86
2023/04/19 04:51:10;;;;;;;4.75;3.55;;;12.90;67.20;;;;;;5031271;28;20054;-86
2023/04/19 04:53:36;;;;;;;5.63;3.70;;;12.90;67.20;;;;;;5015832;28;20029;-86
2023/04/19 04:56:05;;;;;;;4.68;3.40;;;12.90;67.10;;;;;;5025273;28;20141;-87
2023/04/19 04:58:31;;;;;;;4.97;3.75;;;12.90;67.10;;;;;;5023245;28;20033;-85
2023/04/19 05:01:03;;;;;;;4.63;3.47;;;12.90;67.10;;;;;;5023823;28;20033;-85
2023/04/19 05:03:32;;;;;;;5.05;3.47;;;12.90;67.10;;;;;;5008005;28;20527;-88
2023/04/19 05:06:01;;;;;;;5.70;3.63;;;12.90;67.10;;;;;;5024011;28;20056;-85
2023/04/19 05:08:29;;;;;;;3.78;3.10;;;12.90;67.10;;;;;;5023356;28;20029;-87
2023/04/19 05:11:01;;;;;;;4.70;3.75;;;12.80;67.00;;;;;;5025167;28;20429;-86
2023/04/19 05:13:30;;;;;;;5.38;3.08;;;12.80;67.10;;;;;;5040191;28;20025;-86
2023/04/19 05:15:58;;;;;;;4.85;3.70;;;12.80;67.10;;;;;;5023201;28;20051;-88
2023/04/19 05:18:23;;;;;;;4.32;2.95;;;12.80;67.10;;;;;;5057618;28;20051;-87
2023/04/19 05:20:51;;;;;;;4.18;3.30;;;12.80;67.10;;;;;;5023193;28;20025;-87
2023/04/19 05:23:20;;;;;;;4.88;3.63;;;12.80;67.10;;;;;;5024940;28;20086;-85
2023/04/19 05:25:48;;;;;;;4.68;3.47;;;12.80;67.10;;;;;;5023395;28;20037;-86
2023/04/19 05:28:14;;;;;;;5.35;3.40;;;12.70;67.00;;;;;;5023098;28;20021;-84
2023/04/19 05:30:49;;;;;;;4.55;3.40;;;12.70;66.90;;;;;;5009481;28;20087;-87
2023/04/19 05:33:14;;;;;;;4.35;3.03;;;12.70;66.90;;;;;;5023182;28;20033;-86
2023/04/19 05:35:41;;;;;;;4.35;3.35;;;12.70;67.00;;;;;;5023527;28;20020;-85
2023/04/19 05:38:07;;;;;;;4.60;3.25;;;12.70;67.00;;;;;;5006552;28;20453;-86
2023/04/19 05:40:34;;;;;;;4.20;3.05;;;12.70;67.00;;;;;;5023176;28;20037;-88
2023/04/19 05:43:00;;;;;;;4.68;3.20;;;12.70;67.00;;;;;;5023315;28;20021;-86
2023/04/19 05:45:26;;;;;;;5.07;3.67;;;12.70;67.00;;;;;;5005001;28;20497;-86
2023/04/19 05:47:52;;;;;;;4.95;3.55;;;12.60;67.30;;;;;;5019460;28;20037;-87
2023/04/19 05:50:41;;;;;;;4.90;3.25;;;12.60;67.00;;;;;;5022881;28;20030;-84
2023/04/19 05:53:27;;;;;;;4.53;3.30;;;12.60;66.90;;;;;;5008889;28;20556;-87
2023/04/19 05:55:54;;;;;;;3.88;2.85;;;12.60;66.80;;;;;;5003799;28;20486;-87
2023/04/19 05:58:20;;;;;;;4.35;3.38;;;12.60;66.90;;;;;;5019945;28;20025;-87
2023/04/19 06:00:47;;;;;;;4.32;3.30;;;12.60;67.00;;;;;;5036460;28;20038;-87
2023/04/19 06:03:16;;;;;;;4.60;3.03;;;12.60;67.00;;;;;;5020525;28;20470;-85
2023/04/19 06:05:42;;;;;;;5.07;3.63;;;12.60;66.80;;;;;;5019489;28;20049;-86
2023/04/19 06:08:08;;;;;;;3.67;2.90;;;12.50;66.80;;;;;;5019312;28;20030;-86
2023/04/19 06:10:35;;;;;;;5.20;3.70;;;12.50;66.80;;;;;;5019148;28;20043;-86
2023/04/19 06:13:01;;;;;;;3.92;3.10;;;12.50;66.70;;;;;;5003030;28;20029;-84
2023/04/19 06:15:27;;;;;;;5.00;3.50;;;12.50;66.70;;;;;;5019687;28;20033;-85
2023/04/19 06:17:53;;;;;;;4.47;3.20;;;12.50;66.70;;;;;;5018989;28;20520;-86
2023/04/19 06:20:18;;;;;;;4.25;3.15;;;12.50;66.70;;;;;;5003004;28;20038;-86
2023/04/19 06:22:45;;;;;;;4.53;3.10;;;12.50;66.80;;;;;;5018690;28;20038;-88
2023/04/19 06:25:11;;;;;;;3.97;3.20;;;12.40;66.80;;;;;;5019321;28;20034;-85
2023/04/19 06:27:36;;;;;;;5.15;3.50;;;12.50;66.70;;;;;;5034879;28;20021;-85
2023/04/19 06:30:03;;;;;;;4.70;3.33;;;12.40;66.50;;;;;;5034925;28;20021;-85
2023/04/19 06:32:28;;;;;;;4.57;3.28;;;12.40;66.60;;;;;;5001767;28;20088;-86
2023/04/19 06:34:54;;;;;;;4.05;3.13;;;12.40;66.50;;;;;;5018134;28;20033;-85
2023/04/19 06:37:20;;;;;;;5.57;3.42;;;12.40;66.50;;;;;;5017896;28;20022;-84
2023/04/19 06:39:46;;;;;;;4.47;3.13;;;12.40;66.50;;;;;;5034354;28;20075;-83
2023/04/19 06:42:11;;;;;;;4.45;3.33;;;12.40;66.40;;;;;;5018012;28;20116;-86
2023/04/19 06:44:37;;;;;;;4.72;3.33;;;12.40;66.30;;;;;;5002686;28;20037;-87
2023/04/19 06:47:03;;;;;;;4.80;3.22;;;12.40;66.20;;;;;;5006534;28;20123;-87
2023/04/19 06:49:29;;;;;;;4.50;2.97;;;12.40;66.10;;;;;;5022024;28;20030;-85
2023/04/19 06:51:55;;;;;;;4.60;3.20;;;12.40;66.60;;;;;;5019608;28;20040;-86
2023/04/19 06:54:21;;;;;;;4.45;2.90;;;12.40;65.90;;;;;;5018474;28;20026;-87
2023/04/19 06:56:48;;;;;;;4.18;2.92;;;12.40;65.80;;;;;;5018574;28;20036;-85
2023/04/19 06:59:16;;;;;;;4.78;3.53;;;12.40;65.60;;;;;;5018201;28;20025;-93
2023/04/19 07:01:43;;;;;;;3.95;2.95;;;12.40;66.10;;;;;;5035991;28;20038;-87
2023/04/19 07:04:09;;;;;;;3.78;2.78;;;12.40;65.40;;;;;;5039480;28;20474;-87
2023/04/19 07:06:35;;;;;;;4.30;3.08;;;12.40;65.30;;;;;;5051528;28;20014;-90
2023/04/19 07:09:02;;;;;;;3.92;3.10;;;12.40;65.10;;;;;;5028043;28;20179;-92
2023/04/19 07:11:28;;;;;;;3.88;2.58;;;12.40;65.00;;;;;;5019171;28;20108;-88
2023/04/19 07:13:54;;;;;;;4.53;3.10;;;12.40;65.00;;;;;;5034771;28;20029;-90
2023/04/19 07:16:20;;;;;;;4.28;2.90;;;12.40;64.90;;;;;;5019239;28;20021;-95
2023/04/19 07:18:46;;;;;;;4.18;2.60;;;12.40;64.70;;;;;;5019048;28;20064;-91
2023/04/19 07:21:12;;;;;;;4.10;2.90;;;12.40;64.60;;;;;;5036133;28;20098;-90
2023/04/19 07:23:38;;;;;;;3.97;2.50;;;12.40;64.50;;;;;;5002135;28;20044;-89
2023/04/19 07:26:04;;;;;;;3.00;2.25;;;12.40;64.40;;;;;;5034523;28;20030;-89
2023/04/19 07:28:30;;;;;;;3.63;2.50;;;12.40;64.30;;;;;;5018888;28;20026;-89
2023/04/19 07:30:56;;;;;;;3.85;2.60;;;12.40;64.30;;;;;;5034134;28;20033;-88
2023/04/19 07:33:23;;;;;;;3.38;2.40;;;12.40;64.20;;;;;;5018025;28;20088;-89
2023/04/19 07:35:50;;;;;;;3.50;2.47;;;12.40;64.10;;;;;;5018629;28;20053;-88
2023/04/19 07:38:16;;;;;;;3.13;2.25;;;12.40;64.00;;;;;;5017684;28;20127;-88
2023/04/19 07:40:42;;;;;;;2.97;2.38;;;12.40;64.00;;;;;;5017584;28;20064;-86
2023/04/19 07:43:08;;;;;;;3.25;2.30;;;12.40;63.80;;;;;;5017506;28;20029;-87
2023/04/19 07:45:34;;;;;;;2.67;2.03;;;12.40;63.70;;;;;;5000829;28;20053;-86
2023/04/19 07:48:00;;;;;;;3.20;2.28;;;12.40;63.60;;;;;;5017118;28;20041;-86
2023/04/19 07:50:26;;;;;;;3.17;2.28;;;12.40;63.60;;;;;;5017582;28;20042;-86
2023/04/19 07:52:52;;;;;;;3.22;2.20;;;12.40;63.50;;;;;;5001489;28;20064;-89
2023/04/19 07:55:18;;;;;;;3.58;2.47;;;12.40;63.30;;;;;;5017222;28;20057;-86
2023/04/19 07:57:47;;;;;;;3.25;2.33;;;12.40;63.30;;;;;;5017755;28;20057;-87
2023/04/19 08:00:20;;;;;;;2.83;2.20;;;12.40;63.20;;;;;;5033617;28;20068;-87
2023/04/19 08:02:47;;;;;;;3.38;2.05;;;12.40;63.10;;;;;;5034864;28;20065;-87
2023/04/19 08:05:16;;;;;;;2.30;1.98;;;12.40;63.10;;;;;;5017402;28;20476;-87
2023/04/19 08:07:42;;;;;;;2.75;2.10;;;12.40;63.00;;;;;;5033777;28;20083;-87
2023/04/19 08:10:09;;;;;;;3.03;2.20;;;12.40;62.90;;;;;;5017616;28;20030;-88
2023/04/19 08:12:36;;;;;;;2.72;2.03;;;12.40;62.80;;;;;;5034608;28;20033;-87
2023/04/19 08:15:02;;;;;;;3.10;2.20;;;12.50;62.80;;;;;;5033897;28;20037;-87
2023/04/19 08:17:28;;;;;;;2.92;2.20;;;12.40;62.60;;;;;;5017226;28;20033;-86
2023/04/19 08:19:54;;;;;;;3.13;2.13;;;12.50;62.60;;;;;;5017010;28;20021;-89
2023/04/19 08:22:20;;;;;;;2.97;2.20;;;12.50;62.50;;;;;;5016918;28;20030;-87
2023/04/19 08:24:48;;;;;;;2.97;1.90;;;12.50;62.40;;;;;;5033607;28;20040;-87
2023/04/19 08:27:14;;;;;;;3.70;2.20;;;12.50;62.30;;;;;;5017009;28;20038;-87
2023/04/19 08:29:40;;;;;;;2.75;2.10;;;12.60;62.30;;;;;;5017007;28;20029;-87
2023/04/19 08:32:06;;;;;;;2.85;1.80;;;12.60;62.30;;;;;;5034395;28;20076;-85
2023/04/19 08:34:36;;;;;;;2.83;2.15;;;12.60;62.20;;;;;;5016855;28;20029;-87
2023/04/19 08:37:02;;;;;;;2.47;2.00;;;12.70;62.10;;;;;;5033056;28;20104;-87
2023/04/19 08:39:29;;;;;;;3.63;2.10;;;12.70;62.10;;;;;;5034431;28;20052;-87
2023/04/19 08:41:58;;;;;;;2.88;2.05;;;12.70;62.10;;;;;;5016630;28;20037;-88
2023/04/19 08:44:25;;;;;;;2.00;1.70;;;12.80;62.10;;;;;;5033470;28;20064;-88
2023/04/19 08:46:51;;;;;;;2.88;1.90;;;12.80;62.10;;;;;;5017125;28;20137;-87
2023/04/19 08:49:19;;;;;;;2.90;1.90;;;12.90;62.00;;;;;;5016975;28;20033;-87
2023/04/19 08:51:49;;;;;;;2.30;1.75;;;12.90;61.90;;;;;;5033490;28;20029;-86
2023/04/19 08:54:15;;;;;;;2.80;2.10;;;13.00;61.90;;;;;;5016739;28;20034;-85
2023/04/19 08:56:41;;;;;;;2.25;1.73;;;13.00;61.90;;;;;;5033152;28;20466;-87
2023/04/19 08:59:07;;;;;;;1.60;1.50;;;13.10;61.90;;;;;;5034482;28;20040;-86
2023/04/19 09:01:32;;;;;;;2.35;1.80;;;13.10;61.70;;;;;;5032961;28;20034;-87
2023/04/19 09:03:58;;;;;;;1.77;1.63;;;13.20;61.70;;;;;;5016336;28;20037;-87
2023/04/19 09:06:25;;;;;;;2.05;1.80;;;13.30;61.60;;;;;;5016660;28;20037;-87
2023/04/19 09:08:57;;;;;;;2.05;1.60;;;13.30;61.60;;;;;;5032811;28;20033;-88
2023/04/19 09:11:49;;;;;;;1.65;1.55;;;13.40;61.60;;;;;;5033751;28;20048;-86
2023/04/19 09:14:16;;;;;;;1.50;1.38;;;13.40;61.50;;;;;;5013509;28;20041;-87
2023/04/19 09:16:43;;;;;;;2.22;1.63;;;13.50;61.40;;;;;;5016696;28;20140;-88
2023/04/19 09:19:11;;;;;;;2.60;1.70;;;13.50;61.40;;;;;;5002470;28;20363;-86
2023/04/19 09:21:37;;;;;;;1.73;1.63;;;13.60;61.40;;;;;;5038377;28;20033;-86
2023/04/19 09:24:04;;;;;;;2.35;1.60;;;13.70;61.40;;;;;;5040094;28;20026;-86
2023/04/19 09:26:30;;;;;;;1.73;1.50;;;13.70;61.30;;;;;;5021864;28;20124;-87
2023/04/19 09:28:57;;;;;;;4.05;1.50;;;13.80;61.30;;;;;;5040730;28;20018;-86
2023/04/19 09:31:26;;;;;;;1.80;1.52;;;13.80;61.30;;;;;;5042002;28;20120;-86
2023/04/19 09:33:53;;;;;;;1.45;1.33;;;13.90;61.30;;;;;;5049924;28;20071;-85
2023/04/19 09:36:31;;;;;;;1.50;1.40;;;14.00;61.30;;;;;;5039333;28;20113;-85
2023/04/19 09:38:57;;;;;;;1.95;1.60;;;14.00;61.30;;;;;;5020208;28;20033;-86
2023/04/19 09:41:24;;;;;;;1.90;1.48;;;14.10;61.30;;;;;;5019608;28;20083;-85
2023/04/19 09:43:51;;;;;;;1.70;1.60;;;14.20;61.30;;;;;;5038025;28;20101;-87
2023/04/19 09:46:34;;;;;;;1.65;1.52;;;14.20;61.20;;;;;;5022486;28;20133;-84
2023/04/19 09:49:15;;;;;;;1.70;1.50;;;14.30;61.20;;;;;;5040222;28;20029;-87
2023/04/19 09:51:45;;;;;;;2.17;1.42;;;14.40;61.20;;;;;;5039662;28;20068;-84
2023/04/19 09:54:12;;;;;;;1.77;1.50;;;14.40;61.10;;;;;;5040137;28;20033;-83
2023/04/19 09:56:39;;;;;;;2.03;1.65;;;14.50;61.00;;;;;;5038564;28;20577;-83
2023/04/19 09:59:06;;;;;;;1.90;1.55;;;14.60;61.00;;;;;;5019838;28;20053;-85
2023/04/19 10:01:42;;;;;;;1.48;1.38;;;14.70;60.90;;;;;;5019359;28;20067;-85
2023/04/19 10:04:11;;;;;;;2.65;1.73;;;14.70;60.90;;;;;;5035775;28;20485;-84
2023/04/19 10:06:38;;;;;;;1.50;1.40;;;14.80;60.90;;;;;;5035440;28;20026;-86
2023/04/19 10:09:05;;;;;;;1.60;1.48;;;14.90;60.90;;;;;;5035823;28;20114;-86
2023/04/19 10:11:37;;;;;;;2.97;1.30;;;15.00;60.90;;;;;;5035594;28;20466;-86
2023/04/19 10:14:06;;;;;;;1.70;1.50;;;15.00;60.90;;;;;;5035469;28;20030;-85
2023/04/19 10:16:32;;;;;;;1.67;1.55;;;15.10;60.80;;;;;;5019540;28;20455;-84
2023/04/19 10:19:00;;;;;;;1.50;1.40;;;15.20;61.50;;;;;;5035089;28;20033;-84
2023/04/19 10:21:29;;;;;;;2.17;1.52;;;15.30;60.80;;;;;;5034904;28;20030;-84
2023/04/19 10:23:56;;;;;;;1.58;1.40;;;15.30;60.80;;;;;;5019153;28;20045;-84
2023/04/19 10:26:22;;;;;;;3.10;1.52;;;15.40;60.70;;;;;;5018429;28;20494;-86
2023/04/19 10:28:47;;;;;;;1.88;1.65;;;15.50;60.70;;;;;;5018585;28;20129;-85
2023/04/19 10:31:14;;;;;;;1.95;1.50;;;15.50;60.70;;;;;;5035653;28;20041;-85
2023/04/19 10:33:40;;;;;;;1.83;1.60;;;15.60;60.60;;;;;;5034886;28;20032;-85
2023/04/19 10:36:13;;;;;;;2.30;1.80;;;15.70;60.60;;;;;;5034837;28;20017;-85
2023/04/19 10:38:47;;;;;;;1.65;1.52;;;15.80;60.50;;;;;;5034714;28;20041;-85
2023/04/19 10:41:18;;;;;;;1.80;1.45;;;15.80;60.40;;;;;;5035917;28;20033;-84
2023/04/19 10:43:56;;;;;;;1.55;1.35;;;15.90;60.30;;;;;;5018985;28;20030;-83
2023/04/19 10:46:27;;;;;;;1.58;1.48;;;16.00;60.30;;;;;;5049841;28;20098;-85
2023/04/19 10:48:57;;;;;;;1.45;1.35;;;16.10;60.30;;;;;;5022000;28;20033;-84
2023/04/19 10:51:27;;;;;;;1.50;1.40;;;16.20;60.20;;;;;;5037817;28;20037;-82
2023/04/19 10:53:59;;;;;;;1.42;1.33;;;16.20;60.10;;;;;;5021398;28;20024;-84
2023/04/19 10:56:34;;;;;;;1.80;1.50;;;16.30;60.00;;;;;;5021383;28;20060;-82
2023/04/19 10:59:00;;;;;;;1.60;1.40;;;16.40;59.80;;;;;;5037592;28;20029;-86
2023/04/19 11:01:46;;;;;;;2.40;1.65;;;16.50;59.80;;;;;;5055344;28;20036;-84
2023/04/19 11:04:20;;;;;;;1.67;1.52;;;16.50;59.70;;;;;;5055864;28;20039;-86
2023/04/19 11:06:52;;;;;;;1.95;1.40;;;16.60;59.70;;;;;;5021256;28;20187;-85
2023/04/19 11:09:25;;;;;;;2.97;1.60;;;16.70;59.70;;;;;;5021290;28;20032;-85
2023/04/19 11:11:59;;;;;;;1.88;1.50;;;16.80;59.70;;;;;;5022074;28;20106;-85
2023/04/19 11:14:26;;;;;;;1.60;1.33;;;16.90;59.80;;;;;;5020692;28;20107;-83
2023/04/19 11:16:51;;;;;;;2.15;1.77;;;16.90;59.70;;;;;;5020545;28;20115;-88
2023/04/19 11:19:21;;;;;;;1.88;1.67;;;16.90;59.60;;;;;;5004996;28;20503;-89
2023/04/19 11:21:47;;;;;;;2.97;1.80;;;17.00;59.60;;;;;;5037981;28;20032;-86
2023/04/19 11:24:17;;;;;;;2.47;1.70;;;17.00;59.50;;;;;;5037869;28;20041;-91
2023/04/19 11:26:44;;;;;;;1.77;1.63;;;17.10;59.40;;;;;;5021400;28;20040;-84
2023/04/19 11:29:11;;;;;;;3.03;1.98;;;17.20;59.30;;;;;;5021877;28;20508;-84
2023/04/19 11:31:37;;;;;;;1.33;1.23;;;17.20;59.20;;;;;;5020212;28;20025;-83
2023/04/19 11:34:03;;;;;;;1.92;1.58;;;17.30;59.10;;;;;;5003625;28;20039;-81
2023/04/19 11:36:31;;;;;;;1.85;1.55;;;17.30;59.00;;;;;;5020302;28;20100;-84
2023/04/19 11:38:57;;;;;;;2.13;1.52;;;17.40;58.90;;;;;;5036650;28;20028;-83
2023/04/19 11:41:23;;;;;;;2.25;1.50;;;17.40;58.90;;;;;;5036710;28;20052;-85
2023/04/19 11:43:49;;;;;;;3.08;1.90;;;17.50;58.80;;;;;;5004118;28;20063;-82
2023/04/19 11:46:14;;;;;;;1.98;1.48;;;17.50;58.70;;;;;;5037256;28;20049;-82
2023/04/19 11:48:51;;;;;;;2.17;1.42;;;17.60;58.70;;;;;;5036367;28;20508;-84
2023/04/19 11:51:17;;;;;;;1.83;1.55;;;17.60;58.50;;;;;;5037996;28;20037;-83
2023/04/19 11:53:44;;;;;;;1.60;1.50;;;17.70;58.50;;;;;;5038942;28;20098;-84
2023/04/19 11:56:09;;;;;;;2.25;1.67;;;17.70;58.50;;;;;;5037655;28;20493;-78
2023/04/19 11:58:44;;;;;;;2.45;1.55;;;17.70;58.40;;;;;;5005725;28;20037;-77
2023/04/19 12:01:11;;;;;;;3.33;1.70;;;17.70;56.90;;;;;;5055099;28;20025;-76
2023/04/19 12:03:45;;;;;;;3.92;1.85;;;17.70;56.50;;;;;;5038747;28;20021;-81
2023/04/19 12:06:25;;;;;;;2.33;1.58;;;17.70;55.30;;;;;;5020534;28;20037;-80
2023/04/19 12:08:52;;;;;;;2.85;1.83;;;17.70;54.70;;;;;;5018766;28;20031;-82
2023/04/19 12:11:21;;;;;;;2.60;1.80;;;17.70;54.50;;;;;;5003352;28;20568;-78
2023/04/19 12:13:48;;;;;;;2.10;1.65;;;17.70;54.00;;;;;;5018978;28;20029;-79
2023/04/19 12:16:25;;;;;;;1.98;1.60;;;17.60;53.00;;;;;;5019572;28;20128;-79
2023/04/19 12:18:52;;;;;;;2.15;1.63;;;17.70;53.00;;;;;;5053662;28;20512;-79
2023/04/19 12:21:29;;;;;;;2.05;1.50;;;17.70;52.70;;;;;;5035277;28;20083;-80
2023/04/19 12:23:57;;;;;;;1.92;1.20;;;17.70;52.10;;;;;;5053507;28;20067;-78
2023/04/19 12:26:24;;;;;;;2.60;1.70;;;17.60;52.20;;;;;;5035291;28;20076;-80
2023/04/19 12:28:52;;;;;;;1.80;1.50;;;17.60;51.80;;;;;;5018833;28;20079;-77
2023/04/19 12:31:19;;;;;;;1.90;1.60;;;17.70;51.50;;;;;;5035113;28;20049;-78
2023/04/19 12:33:45;;;;;;;1.88;1.50;;;17.70;51.50;;;;;;5002765;28;20099;-77
2023/04/19 12:36:11;;;;;;;1.85;1.60;;;17.70;51.20;;;;;;5034940;28;20029;-78
2023/04/19 12:38:37;;;;;;;1.92;1.55;;;17.70;50.80;;;;;;5018688;28;20055;-77
2023/04/19 12:41:03;;;;;;;1.77;1.55;;;17.70;50.80;;;;;;5018786;28;20505;-78
2023/04/19 12:43:30;;;;;;;1.70;1.60;;;17.80;50.60;;;;;;5019099;28;20037;-79
2023/04/19 12:45:59;;;;;;;2.22;1.58;;;17.70;50.20;;;;;;5002333;28;20041;-81
2023/04/19 12:48:26;;;;;;;2.33;1.73;;;17.80;50.20;;;;;;5035002;28;20477;-81
2023/04/19 12:50:52;;;;;;;2.42;1.90;;;17.80;50.10;;;;;;5018766;28;20044;-79